sensor_id;sensor_type;location;lat;lon;timestamp;P1;durP1;ratioP1;P2;durP2;ratioP2
11614;SDS011;5863;52.832;4.758;2024-02-28T00:00:11;5.40;;;2.60;;
11614;SDS011;5863;52.832;4.758;2024-02-28T00:02:39;5.20;;;2.57;;
11614;SDS011;5863;52.832;4.758;2024-02-28T00:05:07;3.93;;;2.20;;
11614;SDS011;5863;52.832;4.758;2024-02-28T00:07:34;5.23;;;2.53;;
11614;SDS011;5863;52.832;4.758;2024-02-28T00:10:01;4.43;;;2.33;;
11614;SDS011;5863;52.832;4.758;2024-02-28T00:12:28;4.77;;;1.93;;
11614;SDS011;5863;52.832;4.758;2024-02-28T00:14:54;4.37;;;2.10;;
11614;SDS011;5863;52.832;4.758;2024-02-28T00:17:21;4.70;;;2.23;;
11614;SDS011;5863;52.832;4.758;2024-02-28T00:19:49;6.60;;;2.80;;
11614;SDS011;5863;52.832;4.758;2024-02-28T00:22:16;2.17;;;1.70;;
11614;SDS011;5863;52.832;4.758;2024-02-28T00:24:43;3.03;;;1.83;;
11614;SDS011;5863;52.832;4.758;2024-02-28T00:27:10;5.50;;;1.77;;
11614;SDS011;5863;52.832;4.758;2024-02-28T00:29:37;2.10;;;1.43;;
11614;SDS011;5863;52.832;4.758;2024-02-28T00:32:04;1.83;;;1.47;;
11614;SDS011;5863;52.832;4.758;2024-02-28T00:34:31;3.47;;;1.30;;
11614;SDS011;5863;52.832;4.758;2024-02-28T00:36:59;5.10;;;1.27;;
11614;SDS011;5863;52.832;4.758;2024-02-28T00:39:26;6.80;;;1.40;;
11614;SDS011;5863;52.832;4.758;2024-02-28T00:41:53;5.67;;;1.50;;
11614;SDS011;5863;52.832;4.758;2024-02-28T00:44:20;3.03;;;1.40;;
11614;SDS011;5863;52.832;4.758;2024-02-28T00:46:47;10.73;;;1.50;;
11614;SDS011;5863;52.832;4.758;2024-02-28T00:49:14;5.73;;;1.43;;
11614;SDS011;5863;52.832;4.758;2024-02-28T00:51:41;3.80;;;1.67;;
11614;SDS011;5863;52.832;4.758;2024-02-28T00:54:09;7.57;;;1.27;;
11614;SDS011;5863;52.832;4.758;2024-02-28T00:56:35;6.53;;;1.80;;
11614;SDS011;5863;52.832;4.758;2024-02-28T00:59:02;3.93;;;1.50;;
11614;SDS011;5863;52.832;4.758;2024-02-28T01:01:31;4.68;;;1.48;;
11614;SDS011;5863;52.832;4.758;2024-02-28T01:03:58;5.67;;;1.80;;
11614;SDS011;5863;52.832;4.758;2024-02-28T01:06:25;8.68;;;1.60;;
11614;SDS011;5863;52.832;4.758;2024-02-28T01:08:51;5.70;;;2.00;;
11614;SDS011;5863;52.832;4.758;2024-02-28T01:11:20;7.10;;;1.75;;
11614;SDS011;5863;52.832;4.758;2024-02-28T01:13:47;11.07;;;2.20;;
11614;SDS011;5863;52.832;4.758;2024-02-28T01:16:13;5.47;;;1.70;;
11614;SDS011;5863;52.832;4.758;2024-02-28T01:18:40;6.20;;;2.00;;
11614;SDS011;5863;52.832;4.758;2024-02-28T01:21:07;9.40;;;2.63;;
11614;SDS011;5863;52.832;4.758;2024-02-28T01:23:34;7.97;;;2.22;;
11614;SDS011;5863;52.832;4.758;2024-02-28T01:26:01;7.35;;;3.03;;
11614;SDS011;5863;52.832;4.758;2024-02-28T01:28:32;6.53;;;2.40;;
11614;SDS011;5863;52.832;4.758;2024-02-28T01:30:59;8.23;;;2.65;;
11614;SDS011;5863;52.832;4.758;2024-02-28T01:33:26;5.10;;;2.70;;
11614;SDS011;5863;52.832;4.758;2024-02-28T01:35:53;4.22;;;2.47;;
11614;SDS011;5863;52.832;4.758;2024-02-28T01:38:20;8.20;;;3.08;;
11614;SDS011;5863;52.832;4.758;2024-02-28T01:40:47;5.20;;;3.28;;
11614;SDS011;5863;52.832;4.758;2024-02-28T01:43:14;7.65;;;3.88;;
11614;SDS011;5863;52.832;4.758;2024-02-28T01:45:42;5.15;;;3.80;;
11614;SDS011;5863;52.832;4.758;2024-02-28T01:48:09;8.57;;;4.25;;
11614;SDS011;5863;52.832;4.758;2024-02-28T01:50:38;5.57;;;4.43;;
11614;SDS011;5863;52.832;4.758;2024-02-28T01:53:05;10.27;;;4.68;;
11614;SDS011;5863;52.832;4.758;2024-02-28T01:55:34;7.82;;;4.70;;
11614;SDS011;5863;52.832;4.758;2024-02-28T01:58:01;11.68;;;5.68;;
11614;SDS011;5863;52.832;4.758;2024-02-28T02:00:30;10.60;;;5.75;;
11614;SDS011;5863;52.832;4.758;2024-02-28T02:03:03;11.52;;;6.10;;
11614;SDS011;5863;52.832;4.758;2024-02-28T02:05:30;12.35;;;6.35;;
11614;SDS011;5863;52.832;4.758;2024-02-28T02:07:57;12.52;;;6.75;;
11614;SDS011;5863;52.832;4.758;2024-02-28T02:10:25;15.52;;;6.68;;
11614;SDS011;5863;52.832;4.758;2024-02-28T02:12:52;10.07;;;6.07;;
11614;SDS011;5863;52.832;4.758;2024-02-28T02:15:19;11.63;;;6.90;;
11614;SDS011;5863;52.832;4.758;2024-02-28T02:17:46;11.48;;;7.05;;
11614;SDS011;5863;52.832;4.758;2024-02-28T02:20:15;15.80;;;6.95;;
11614;SDS011;5863;52.832;4.758;2024-02-28T02:22:44;9.60;;;6.35;;
11614;SDS011;5863;52.832;4.758;2024-02-28T02:25:11;13.50;;;5.47;;
11614;SDS011;5863;52.832;4.758;2024-02-28T02:27:38;10.93;;;6.50;;
11614;SDS011;5863;52.832;4.758;2024-02-28T02:30:05;12.02;;;5.85;;
11614;SDS011;5863;52.832;4.758;2024-02-28T02:32:33;8.75;;;5.60;;
11614;SDS011;5863;52.832;4.758;2024-02-28T02:34:59;9.48;;;5.50;;
11614;SDS011;5863;52.832;4.758;2024-02-28T02:37:27;10.45;;;5.45;;
11614;SDS011;5863;52.832;4.758;2024-02-28T02:39:55;12.70;;;6.47;;
11614;SDS011;5863;52.832;4.758;2024-02-28T02:42:22;12.88;;;6.38;;
11614;SDS011;5863;52.832;4.758;2024-02-28T02:44:49;10.25;;;6.10;;
11614;SDS011;5863;52.832;4.758;2024-02-28T02:47:16;9.68;;;6.18;;
11614;SDS011;5863;52.832;4.758;2024-02-28T02:49:42;11.55;;;5.95;;
11614;SDS011;5863;52.832;4.758;2024-02-28T02:52:09;14.32;;;6.10;;
11614;SDS011;5863;52.832;4.758;2024-02-28T02:54:36;12.35;;;6.05;;
11614;SDS011;5863;52.832;4.758;2024-02-28T02:57:04;12.00;;;6.18;;
11614;SDS011;5863;52.832;4.758;2024-02-28T02:59:31;11.98;;;6.10;;
11614;SDS011;5863;52.832;4.758;2024-02-28T03:01:58;12.43;;;6.13;;
11614;SDS011;5863;52.832;4.758;2024-02-28T03:04:25;12.75;;;6.65;;
11614;SDS011;5863;52.832;4.758;2024-02-28T03:06:52;14.73;;;5.50;;
11614;SDS011;5863;52.832;4.758;2024-02-28T03:09:18;10.90;;;6.72;;
11614;SDS011;5863;52.832;4.758;2024-02-28T03:11:45;12.20;;;6.70;;
11614;SDS011;5863;52.832;4.758;2024-02-28T03:14:14;15.82;;;6.28;;
11614;SDS011;5863;52.832;4.758;2024-02-28T03:16:41;14.52;;;6.47;;
11614;SDS011;5863;52.832;4.758;2024-02-28T03:19:08;11.38;;;6.05;;
11614;SDS011;5863;52.832;4.758;2024-02-28T03:21:36;13.07;;;5.88;;
11614;SDS011;5863;52.832;4.758;2024-02-28T03:24:02;13.43;;;6.15;;
11614;SDS011;5863;52.832;4.758;2024-02-28T03:26:29;8.98;;;6.18;;
11614;SDS011;5863;52.832;4.758;2024-02-28T03:28:56;11.88;;;6.22;;
11614;SDS011;5863;52.832;4.758;2024-02-28T03:31:25;13.93;;;6.30;;
11614;SDS011;5863;52.832;4.758;2024-02-28T03:33:52;14.57;;;6.50;;
11614;SDS011;5863;52.832;4.758;2024-02-28T03:36:19;13.27;;;6.07;;
11614;SDS011;5863;52.832;4.758;2024-02-28T03:38:46;11.90;;;6.53;;
11614;SDS011;5863;52.832;4.758;2024-02-28T03:41:12;10.95;;;6.15;;
11614;SDS011;5863;52.832;4.758;2024-02-28T03:43:39;10.30;;;6.57;;
11614;SDS011;5863;52.832;4.758;2024-02-28T03:46:06;11.63;;;5.95;;
11614;SDS011;5863;52.832;4.758;2024-02-28T03:48:35;14.00;;;6.72;;
11614;SDS011;5863;52.832;4.758;2024-02-28T03:51:02;10.63;;;6.00;;
11614;SDS011;5863;52.832;4.758;2024-02-28T03:53:29;12.65;;;6.40;;
11614;SDS011;5863;52.832;4.758;2024-02-28T03:55:57;12.70;;;6.65;;
11614;SDS011;5863;52.832;4.758;2024-02-28T03:58:24;14.00;;;6.15;;
11614;SDS011;5863;52.832;4.758;2024-02-28T04:00:49;15.50;;;7.10;;
11614;SDS011;5863;52.832;4.758;2024-02-28T04:03:16;13.15;;;6.45;;
11614;SDS011;5863;52.832;4.758;2024-02-28T04:05:44;11.20;;;6.32;;
11614;SDS011;5863;52.832;4.758;2024-02-28T04:08:11;14.30;;;6.72;;
11614;SDS011;5863;52.832;4.758;2024-02-28T04:10:38;13.18;;;6.05;;
11614;SDS011;5863;52.832;4.758;2024-02-28T04:13:05;16.33;;;6.38;;
11614;SDS011;5863;52.832;4.758;2024-02-28T04:15:32;10.30;;;5.88;;
11614;SDS011;5863;52.832;4.758;2024-02-28T04:18:05;12.43;;;6.22;;
11614;SDS011;5863;52.832;4.758;2024-02-28T04:20:32;16.20;;;6.28;;
11614;SDS011;5863;52.832;4.758;2024-02-28T04:23:00;12.20;;;6.03;;
11614;SDS011;5863;52.832;4.758;2024-02-28T04:25:27;12.02;;;6.40;;
11614;SDS011;5863;52.832;4.758;2024-02-28T04:27:54;11.45;;;6.85;;
11614;SDS011;5863;52.832;4.758;2024-02-28T04:30:22;12.40;;;6.75;;
11614;SDS011;5863;52.832;4.758;2024-02-28T04:32:49;12.70;;;6.78;;
11614;SDS011;5863;52.832;4.758;2024-02-28T04:35:16;13.40;;;6.82;;
11614;SDS011;5863;52.832;4.758;2024-02-28T04:37:43;14.70;;;7.15;;
11614;SDS011;5863;52.832;4.758;2024-02-28T04:40:12;13.68;;;7.30;;
11614;SDS011;5863;52.832;4.758;2024-02-28T04:42:40;13.75;;;7.35;;
11614;SDS011;5863;52.832;4.758;2024-02-28T04:45:08;13.27;;;8.30;;
11614;SDS011;5863;52.832;4.758;2024-02-28T04:47:35;18.20;;;8.52;;
11614;SDS011;5863;52.832;4.758;2024-02-28T04:50:02;16.55;;;9.00;;
11614;SDS011;5863;52.832;4.758;2024-02-28T04:52:30;16.55;;;9.30;;
11614;SDS011;5863;52.832;4.758;2024-02-28T04:54:57;17.08;;;9.45;;
11614;SDS011;5863;52.832;4.758;2024-02-28T04:57:25;19.80;;;9.68;;
11614;SDS011;5863;52.832;4.758;2024-02-28T04:59:52;17.75;;;10.90;;
11614;SDS011;5863;52.832;4.758;2024-02-28T05:02:19;15.52;;;9.57;;
11614;SDS011;5863;52.832;4.758;2024-02-28T05:04:47;14.35;;;10.00;;
11614;SDS011;5863;52.832;4.758;2024-02-28T05:07:14;19.05;;;10.00;;
11614;SDS011;5863;52.832;4.758;2024-02-28T05:09:41;23.63;;;10.45;;
11614;SDS011;5863;52.832;4.758;2024-02-28T05:12:07;13.80;;;10.07;;
11614;SDS011;5863;52.832;4.758;2024-02-28T05:14:35;15.57;;;9.35;;
11614;SDS011;5863;52.832;4.758;2024-02-28T05:17:02;14.25;;;9.68;;
11614;SDS011;5863;52.832;4.758;2024-02-28T05:19:32;20.40;;;9.95;;
11614;SDS011;5863;52.832;4.758;2024-02-28T05:21:58;22.45;;;10.25;;
11614;SDS011;5863;52.832;4.758;2024-02-28T05:24:26;19.08;;;9.90;;
11614;SDS011;5863;52.832;4.758;2024-02-28T05:26:53;19.33;;;9.35;;
11614;SDS011;5863;52.832;4.758;2024-02-28T05:29:19;16.05;;;8.77;;
11614;SDS011;5863;52.832;4.758;2024-02-28T05:31:48;19.42;;;9.23;;
11614;SDS011;5863;52.832;4.758;2024-02-28T05:34:14;14.55;;;8.95;;
11614;SDS011;5863;52.832;4.758;2024-02-28T05:36:42;17.65;;;8.75;;
11614;SDS011;5863;52.832;4.758;2024-02-28T05:39:09;18.10;;;8.52;;
11614;SDS011;5863;52.832;4.758;2024-02-28T05:41:36;18.35;;;8.75;;
11614;SDS011;5863;52.832;4.758;2024-02-28T05:44:03;18.98;;;8.52;;
11614;SDS011;5863;52.832;4.758;2024-02-28T05:46:29;15.10;;;8.35;;
11614;SDS011;5863;52.832;4.758;2024-02-28T05:48:58;19.55;;;9.20;;
11614;SDS011;5863;52.832;4.758;2024-02-28T05:51:25;14.77;;;8.38;;
11614;SDS011;5863;52.832;4.758;2024-02-28T05:53:52;22.77;;;8.68;;
11614;SDS011;5863;52.832;4.758;2024-02-28T05:56:19;21.95;;;8.43;;
11614;SDS011;5863;52.832;4.758;2024-02-28T05:58:47;15.27;;;8.63;;
11614;SDS011;5863;52.832;4.758;2024-02-28T06:01:14;18.50;;;8.23;;
11614;SDS011;5863;52.832;4.758;2024-02-28T06:03:45;16.15;;;8.50;;
11614;SDS011;5863;52.832;4.758;2024-02-28T06:06:13;14.27;;;8.23;;
11614;SDS011;5863;52.832;4.758;2024-02-28T06:08:40;20.55;;;9.30;;
11614;SDS011;5863;52.832;4.758;2024-02-28T06:11:07;18.60;;;8.25;;
11614;SDS011;5863;52.832;4.758;2024-02-28T06:13:34;19.35;;;8.43;;
11614;SDS011;5863;52.832;4.758;2024-02-28T06:16:02;16.92;;;8.70;;
11614;SDS011;5863;52.832;4.758;2024-02-28T06:18:29;16.55;;;8.57;;
11614;SDS011;5863;52.832;4.758;2024-02-28T06:20:58;22.67;;;8.63;;
11614;SDS011;5863;52.832;4.758;2024-02-28T06:23:30;18.98;;;8.30;;
11614;SDS011;5863;52.832;4.758;2024-02-28T06:25:57;25.65;;;9.30;;
11614;SDS011;5863;52.832;4.758;2024-02-28T06:28:24;16.70;;;8.57;;
11614;SDS011;5863;52.832;4.758;2024-02-28T06:30:52;19.65;;;8.73;;
11614;SDS011;5863;52.832;4.758;2024-02-28T06:33:19;21.65;;;9.25;;
11614;SDS011;5863;52.832;4.758;2024-02-28T06:35:46;20.40;;;9.27;;
11614;SDS011;5863;52.832;4.758;2024-02-28T06:38:12;16.88;;;9.10;;
11614;SDS011;5863;52.832;4.758;2024-02-28T06:40:41;15.45;;;9.15;;
11614;SDS011;5863;52.832;4.758;2024-02-28T06:43:07;26.83;;;9.70;;
11614;SDS011;5863;52.832;4.758;2024-02-28T06:45:34;19.88;;;8.80;;
11614;SDS011;5863;52.832;4.758;2024-02-28T06:48:01;19.27;;;9.55;;
11614;SDS011;5863;52.832;4.758;2024-02-28T06:50:28;18.67;;;9.65;;
11614;SDS011;5863;52.832;4.758;2024-02-28T06:52:55;16.65;;;9.15;;
11614;SDS011;5863;52.832;4.758;2024-02-28T06:55:22;19.25;;;9.23;;
11614;SDS011;5863;52.832;4.758;2024-02-28T06:57:51;18.90;;;9.15;;
11614;SDS011;5863;52.832;4.758;2024-02-28T07:00:18;18.65;;;9.70;;
11614;SDS011;5863;52.832;4.758;2024-02-28T07:02:45;17.25;;;10.55;;
11614;SDS011;5863;52.832;4.758;2024-02-28T07:05:12;14.50;;;9.40;;
11614;SDS011;5863;52.832;4.758;2024-02-28T07:07:39;21.55;;;10.27;;
11614;SDS011;5863;52.832;4.758;2024-02-28T07:10:06;15.07;;;9.82;;
11614;SDS011;5863;52.832;4.758;2024-02-28T07:12:33;18.77;;;9.90;;
11614;SDS011;5863;52.832;4.758;2024-02-28T07:15:02;17.40;;;9.30;;
11614;SDS011;5863;52.832;4.758;2024-02-28T07:17:29;15.88;;;9.40;;
11614;SDS011;5863;52.832;4.758;2024-02-28T07:19:57;15.82;;;9.75;;
11614;SDS011;5863;52.832;4.758;2024-02-28T07:22:24;15.10;;;9.38;;
11614;SDS011;5863;52.832;4.758;2024-02-28T07:24:51;17.35;;;9.80;;
11614;SDS011;5863;52.832;4.758;2024-02-28T07:27:18;17.83;;;9.80;;
11614;SDS011;5863;52.832;4.758;2024-02-28T07:29:47;19.30;;;10.15;;
11614;SDS011;5863;52.832;4.758;2024-02-28T07:32:16;23.48;;;9.77;;
11614;SDS011;5863;52.832;4.758;2024-02-28T07:34:43;17.25;;;10.32;;
11614;SDS011;5863;52.832;4.758;2024-02-28T07:37:09;20.20;;;9.98;;
11614;SDS011;5863;52.832;4.758;2024-02-28T07:39:37;18.77;;;9.77;;
11614;SDS011;5863;52.832;4.758;2024-02-28T07:42:04;16.92;;;9.68;;
11614;SDS011;5863;52.832;4.758;2024-02-28T07:44:31;21.63;;;9.48;;
11614;SDS011;5863;52.832;4.758;2024-02-28T07:46:58;21.10;;;10.00;;
11614;SDS011;5863;52.832;4.758;2024-02-28T07:49:26;19.83;;;10.45;;
11614;SDS011;5863;52.832;4.758;2024-02-28T07:51:53;22.27;;;10.40;;
11614;SDS011;5863;52.832;4.758;2024-02-28T07:54:20;19.85;;;11.35;;
11614;SDS011;5863;52.832;4.758;2024-02-28T07:56:48;19.67;;;10.90;;
11614;SDS011;5863;52.832;4.758;2024-02-28T07:59:15;24.98;;;10.65;;
11614;SDS011;5863;52.832;4.758;2024-02-28T08:01:42;16.25;;;9.55;;
11614;SDS011;5863;52.832;4.758;2024-02-28T08:04:10;22.77;;;10.57;;
11614;SDS011;5863;52.832;4.758;2024-02-28T08:06:39;21.95;;;10.55;;
11614;SDS011;5863;52.832;4.758;2024-02-28T08:09:06;16.92;;;10.68;;
11614;SDS011;5863;52.832;4.758;2024-02-28T08:11:33;19.55;;;11.32;;
11614;SDS011;5863;52.832;4.758;2024-02-28T08:14:00;20.08;;;11.23;;
11614;SDS011;5863;52.832;4.758;2024-02-28T08:16:28;21.67;;;11.77;;
11614;SDS011;5863;52.832;4.758;2024-02-28T08:18:55;17.63;;;11.13;;
11614;SDS011;5863;52.832;4.758;2024-02-28T08:21:22;18.83;;;11.00;;
11614;SDS011;5863;52.832;4.758;2024-02-28T08:23:50;22.95;;;11.23;;
11614;SDS011;5863;52.832;4.758;2024-02-28T08:26:17;20.80;;;11.00;;
11614;SDS011;5863;52.832;4.758;2024-02-28T08:28:50;16.75;;;10.95;;
11614;SDS011;5863;52.832;4.758;2024-02-28T08:31:16;20.02;;;11.73;;
11614;SDS011;5863;52.832;4.758;2024-02-28T08:33:43;20.88;;;11.77;;
11614;SDS011;5863;52.832;4.758;2024-02-28T08:36:10;19.35;;;10.63;;
11614;SDS011;5863;52.832;4.758;2024-02-28T08:38:37;18.08;;;11.30;;
11614;SDS011;5863;52.832;4.758;2024-02-28T08:41:06;17.10;;;10.57;;
11614;SDS011;5863;52.832;4.758;2024-02-28T08:43:33;17.70;;;10.57;;
11614;SDS011;5863;52.832;4.758;2024-02-28T08:46:03;16.77;;;10.32;;
11614;SDS011;5863;52.832;4.758;2024-02-28T08:48:30;19.40;;;10.82;;
11614;SDS011;5863;52.832;4.758;2024-02-28T08:50:57;19.88;;;11.27;;
11614;SDS011;5863;52.832;4.758;2024-02-28T08:53:24;22.05;;;10.90;;
11614;SDS011;5863;52.832;4.758;2024-02-28T08:55:52;15.80;;;10.75;;
11614;SDS011;5863;52.832;4.758;2024-02-28T08:58:20;18.15;;;10.45;;
11614;SDS011;5863;52.832;4.758;2024-02-28T09:00:47;21.48;;;11.25;;
11614;SDS011;5863;52.832;4.758;2024-02-28T09:03:14;16.95;;;10.85;;
11614;SDS011;5863;52.832;4.758;2024-02-28T09:05:41;19.77;;;10.75;;
11614;SDS011;5863;52.832;4.758;2024-02-28T09:08:08;16.48;;;9.93;;
11614;SDS011;5863;52.832;4.758;2024-02-28T09:10:35;20.35;;;11.30;;
11614;SDS011;5863;52.832;4.758;2024-02-28T09:13:02;19.23;;;10.88;;
11614;SDS011;5863;52.832;4.758;2024-02-28T09:15:30;17.13;;;10.98;;
11614;SDS011;5863;52.832;4.758;2024-02-28T09:17:57;21.88;;;11.20;;
11614;SDS011;5863;52.832;4.758;2024-02-28T09:20:24;18.05;;;10.52;;
11614;SDS011;5863;52.832;4.758;2024-02-28T09:22:51;13.55;;;10.32;;
11614;SDS011;5863;52.832;4.758;2024-02-28T09:25:18;22.98;;;10.57;;
11614;SDS011;5863;52.832;4.758;2024-02-28T09:27:46;21.88;;;10.52;;
11614;SDS011;5863;52.832;4.758;2024-02-28T09:30:13;13.43;;;10.35;;
11614;SDS011;5863;52.832;4.758;2024-02-28T09:32:43;15.70;;;9.90;;
11614;SDS011;5863;52.832;4.758;2024-02-28T09:35:10;16.63;;;9.98;;
11614;SDS011;5863;52.832;4.758;2024-02-28T09:37:37;21.55;;;10.70;;
11614;SDS011;5863;52.832;4.758;2024-02-28T09:40:04;16.23;;;9.23;;
11614;SDS011;5863;52.832;4.758;2024-02-28T09:42:34;15.10;;;9.82;;
11614;SDS011;5863;52.832;4.758;2024-02-28T09:45:01;20.25;;;10.07;;
11614;SDS011;5863;52.832;4.758;2024-02-28T09:47:29;18.15;;;9.95;;
11614;SDS011;5863;52.832;4.758;2024-02-28T09:49:58;13.85;;;9.23;;
11614;SDS011;5863;52.832;4.758;2024-02-28T09:52:26;20.80;;;8.80;;
11614;SDS011;5863;52.832;4.758;2024-02-28T09:54:53;10.90;;;7.97;;
11614;SDS011;5863;52.832;4.758;2024-02-28T09:57:20;13.23;;;7.38;;
11614;SDS011;5863;52.832;4.758;2024-02-28T09:59:53;12.85;;;8.23;;
11614;SDS011;5863;52.832;4.758;2024-02-28T10:02:21;15.02;;;8.32;;
11614;SDS011;5863;52.832;4.758;2024-02-28T10:04:50;15.93;;;8.38;;
11614;SDS011;5863;52.832;4.758;2024-02-28T10:07:18;13.80;;;7.60;;
11614;SDS011;5863;52.832;4.758;2024-02-28T10:09:46;10.27;;;7.82;;
11614;SDS011;5863;52.832;4.758;2024-02-28T10:12:14;13.52;;;8.35;;
11614;SDS011;5863;52.832;4.758;2024-02-28T10:14:41;13.05;;;8.23;;
11614;SDS011;5863;52.832;4.758;2024-02-28T10:17:07;16.40;;;8.95;;
11614;SDS011;5863;52.832;4.758;2024-02-28T10:19:34;13.88;;;8.25;;
11614;SDS011;5863;52.832;4.758;2024-02-28T10:22:01;14.80;;;8.40;;
11614;SDS011;5863;52.832;4.758;2024-02-28T10:24:29;15.15;;;8.63;;
11614;SDS011;5863;52.832;4.758;2024-02-28T10:27:00;14.50;;;8.63;;
11614;SDS011;5863;52.832;4.758;2024-02-28T10:29:27;15.43;;;9.32;;
11614;SDS011;5863;52.832;4.758;2024-02-28T10:31:54;15.43;;;9.30;;
11614;SDS011;5863;52.832;4.758;2024-02-28T10:34:21;12.63;;;9.35;;
11614;SDS011;5863;52.832;4.758;2024-02-28T10:36:49;15.70;;;10.02;;
11614;SDS011;5863;52.832;4.758;2024-02-28T10:39:16;19.70;;;9.77;;
11614;SDS011;5863;52.832;4.758;2024-02-28T10:41:44;19.85;;;10.20;;
11614;SDS011;5863;52.832;4.758;2024-02-28T10:44:13;17.27;;;10.15;;
11614;SDS011;5863;52.832;4.758;2024-02-28T10:46:42;14.27;;;9.23;;
11614;SDS011;5863;52.832;4.758;2024-02-28T10:49:15;13.02;;;9.15;;
11614;SDS011;5863;52.832;4.758;2024-02-28T10:51:42;12.60;;;8.95;;
11614;SDS011;5863;52.832;4.758;2024-02-28T10:54:12;14.63;;;7.95;;
11614;SDS011;5863;52.832;4.758;2024-02-28T10:56:39;13.02;;;8.73;;
11614;SDS011;5863;52.832;4.758;2024-02-28T10:59:09;13.70;;;9.32;;
11614;SDS011;5863;52.832;4.758;2024-02-28T11:01:37;16.02;;;9.43;;
11614;SDS011;5863;52.832;4.758;2024-02-28T11:04:07;15.57;;;9.50;;
11614;SDS011;5863;52.832;4.758;2024-02-28T11:06:34;14.05;;;9.73;;
11614;SDS011;5863;52.832;4.758;2024-02-28T11:09:02;19.20;;;10.38;;
11614;SDS011;5863;52.832;4.758;2024-02-28T11:11:30;20.13;;;10.82;;
11614;SDS011;5863;52.832;4.758;2024-02-28T11:13:57;13.57;;;9.27;;
11614;SDS011;5863;52.832;4.758;2024-02-28T11:16:28;17.73;;;9.93;;
11614;SDS011;5863;52.832;4.758;2024-02-28T11:18:56;18.52;;;9.88;;
11614;SDS011;5863;52.832;4.758;2024-02-28T11:21:23;16.48;;;10.48;;
11614;SDS011;5863;52.832;4.758;2024-02-28T11:23:56;19.02;;;10.63;;
11614;SDS011;5863;52.832;4.758;2024-02-28T11:26:24;21.23;;;11.88;;
11614;SDS011;5863;52.832;4.758;2024-02-28T11:28:52;29.20;;;12.80;;
11614;SDS011;5863;52.832;4.758;2024-02-28T11:31:20;20.30;;;11.02;;
11614;SDS011;5863;52.832;4.758;2024-02-28T11:33:49;20.33;;;11.98;;
11614;SDS011;5863;52.832;4.758;2024-02-28T11:36:15;21.02;;;12.20;;
11614;SDS011;5863;52.832;4.758;2024-02-28T11:38:43;23.42;;;12.82;;
11614;SDS011;5863;52.832;4.758;2024-02-28T11:41:11;18.65;;;11.32;;
11614;SDS011;5863;52.832;4.758;2024-02-28T11:43:38;16.58;;;10.43;;
11614;SDS011;5863;52.832;4.758;2024-02-28T11:46:07;15.57;;;10.25;;
11614;SDS011;5863;52.832;4.758;2024-02-28T11:48:35;15.43;;;10.23;;
11614;SDS011;5863;52.832;4.758;2024-02-28T11:51:03;15.80;;;9.23;;
11614;SDS011;5863;52.832;4.758;2024-02-28T11:53:30;15.55;;;9.77;;
11614;SDS011;5863;52.832;4.758;2024-02-28T11:55:57;15.90;;;9.50;;
11614;SDS011;5863;52.832;4.758;2024-02-28T11:58:24;15.43;;;9.68;;
11614;SDS011;5863;52.832;4.758;2024-02-28T12:00:51;13.80;;;9.15;;
11614;SDS011;5863;52.832;4.758;2024-02-28T12:03:22;16.45;;;9.18;;
11614;SDS011;5863;52.832;4.758;2024-02-28T12:05:49;16.38;;;9.38;;
11614;SDS011;5863;52.832;4.758;2024-02-28T12:08:19;14.55;;;8.02;;
11614;SDS011;5863;52.832;4.758;2024-02-28T12:10:46;11.05;;;7.13;;
11614;SDS011;5863;52.832;4.758;2024-02-28T12:13:15;12.95;;;7.35;;
11614;SDS011;5863;52.832;4.758;2024-02-28T12:15:43;13.75;;;7.53;;
11614;SDS011;5863;52.832;4.758;2024-02-28T12:18:11;14.57;;;7.70;;
11614;SDS011;5863;52.832;4.758;2024-02-28T12:20:38;15.90;;;8.25;;
11614;SDS011;5863;52.832;4.758;2024-02-28T12:23:04;19.80;;;8.93;;
11614;SDS011;5863;52.832;4.758;2024-02-28T12:25:34;14.48;;;7.50;;
11614;SDS011;5863;52.832;4.758;2024-02-28T12:28:01;11.68;;;7.25;;
11614;SDS011;5863;52.832;4.758;2024-02-28T12:30:30;13.30;;;7.72;;
11614;SDS011;5863;52.832;4.758;2024-02-28T12:32:57;11.25;;;7.32;;
11614;SDS011;5863;52.832;4.758;2024-02-28T12:35:25;12.40;;;8.00;;
11614;SDS011;5863;52.832;4.758;2024-02-28T12:37:52;15.73;;;9.10;;
11614;SDS011;5863;52.832;4.758;2024-02-28T12:40:18;15.75;;;10.02;;
11614;SDS011;5863;52.832;4.758;2024-02-28T12:42:47;15.13;;;9.95;;
11614;SDS011;5863;52.832;4.758;2024-02-28T12:45:14;14.32;;;9.25;;
11614;SDS011;5863;52.832;4.758;2024-02-28T12:47:40;17.92;;;10.38;;
11614;SDS011;5863;52.832;4.758;2024-02-28T12:50:07;14.45;;;9.88;;
11614;SDS011;5863;52.832;4.758;2024-02-28T12:52:36;15.27;;;9.52;;
11614;SDS011;5863;52.832;4.758;2024-02-28T12:55:03;19.60;;;10.80;;
11614;SDS011;5863;52.832;4.758;2024-02-28T12:57:30;17.67;;;9.73;;
11614;SDS011;5863;52.832;4.758;2024-02-28T12:59:58;17.85;;;9.75;;
11614;SDS011;5863;52.832;4.758;2024-02-28T13:02:26;13.55;;;8.90;;
11614;SDS011;5863;52.832;4.758;2024-02-28T13:04:53;14.95;;;9.45;;
11614;SDS011;5863;52.832;4.758;2024-02-28T13:07:19;16.73;;;9.18;;
11614;SDS011;5863;52.832;4.758;2024-02-28T13:09:47;17.83;;;9.40;;
11614;SDS011;5863;52.832;4.758;2024-02-28T13:12:15;15.73;;;9.50;;
11614;SDS011;5863;52.832;4.758;2024-02-28T13:14:42;17.48;;;9.93;;
11614;SDS011;5863;52.832;4.758;2024-02-28T13:17:10;15.32;;;10.85;;
11614;SDS011;5863;52.832;4.758;2024-02-28T13:19:37;13.52;;;10.05;;
11614;SDS011;5863;52.832;4.758;2024-02-28T13:22:04;17.63;;;10.65;;
11614;SDS011;5863;52.832;4.758;2024-02-28T13:24:31;18.65;;;11.82;;
11614;SDS011;5863;52.832;4.758;2024-02-28T13:27:00;20.73;;;12.48;;
11614;SDS011;5863;52.832;4.758;2024-02-28T13:29:27;20.42;;;12.35;;
11614;SDS011;5863;52.832;4.758;2024-02-28T13:31:56;20.48;;;12.32;;
11614;SDS011;5863;52.832;4.758;2024-02-28T13:34:24;22.15;;;12.98;;
11614;SDS011;5863;52.832;4.758;2024-02-28T13:36:51;22.25;;;12.50;;
11614;SDS011;5863;52.832;4.758;2024-02-28T13:39:18;20.58;;;11.95;;
11614;SDS011;5863;52.832;4.758;2024-02-28T13:41:45;20.50;;;12.30;;
11614;SDS011;5863;52.832;4.758;2024-02-28T13:44:16;18.75;;;12.32;;
11614;SDS011;5863;52.832;4.758;2024-02-28T13:46:44;16.70;;;11.98;;
11614;SDS011;5863;52.832;4.758;2024-02-28T13:49:11;18.90;;;12.30;;
11614;SDS011;5863;52.832;4.758;2024-02-28T13:51:40;20.70;;;11.75;;
11614;SDS011;5863;52.832;4.758;2024-02-28T13:54:08;21.98;;;11.63;;
11614;SDS011;5863;52.832;4.758;2024-02-28T13:56:35;18.60;;;12.35;;
11614;SDS011;5863;52.832;4.758;2024-02-28T13:59:02;20.73;;;12.48;;
11614;SDS011;5863;52.832;4.758;2024-02-28T14:01:29;17.75;;;11.27;;
11614;SDS011;5863;52.832;4.758;2024-02-28T14:03:56;21.63;;;11.30;;
11614;SDS011;5863;52.832;4.758;2024-02-28T14:06:23;21.05;;;12.40;;
11614;SDS011;5863;52.832;4.758;2024-02-28T14:08:51;20.30;;;12.93;;
11614;SDS011;5863;52.832;4.758;2024-02-28T14:11:18;19.27;;;12.80;;
11614;SDS011;5863;52.832;4.758;2024-02-28T14:13:45;26.40;;;13.82;;
11614;SDS011;5863;52.832;4.758;2024-02-28T14:16:13;24.42;;;13.27;;
11614;SDS011;5863;52.832;4.758;2024-02-28T14:18:39;20.40;;;13.25;;
11614;SDS011;5863;52.832;4.758;2024-02-28T14:21:06;23.98;;;14.00;;
11614;SDS011;5863;52.832;4.758;2024-02-28T14:23:33;22.63;;;13.65;;
11614;SDS011;5863;52.832;4.758;2024-02-28T14:26:02;21.55;;;12.88;;
11614;SDS011;5863;52.832;4.758;2024-02-28T14:28:29;21.17;;;13.60;;
11614;SDS011;5863;52.832;4.758;2024-02-28T14:30:56;20.60;;;13.48;;
11614;SDS011;5863;52.832;4.758;2024-02-28T14:33:23;20.42;;;13.60;;
11614;SDS011;5863;52.832;4.758;2024-02-28T14:35:49;23.38;;;13.25;;
11614;SDS011;5863;52.832;4.758;2024-02-28T14:38:16;25.58;;;13.20;;
11614;SDS011;5863;52.832;4.758;2024-02-28T14:40:44;20.88;;;13.23;;
11614;SDS011;5863;52.832;4.758;2024-02-28T14:43:12;20.20;;;13.18;;
11614;SDS011;5863;52.832;4.758;2024-02-28T14:45:40;20.17;;;12.15;;